createdAt,value
2023-03-05T00:01:11.200Z,0.40
2023-03-05T00:03:37.650Z,0.65
2023-03-05T00:06:04.268Z,0.50
2023-03-05T00:08:31.418Z,0.43
2023-03-05T00:10:59.410Z,0.35
2023-03-05T00:13:25.962Z,0.40
2023-03-05T00:15:52.370Z,0.52
2023-03-05T00:18:19.033Z,0.40
2023-03-05T00:20:45.816Z,0.38
2023-03-05T00:23:12.428Z,0.50
2023-03-05T00:25:39.421Z,0.40
2023-03-05T00:28:05.974Z,0.50
2023-03-05T00:30:32.674Z,0.65
2023-03-05T00:32:59.253Z,0.70
2023-03-05T00:35:25.843Z,0.43
2023-03-05T00:37:52.578Z,0.47
2023-03-05T00:40:19.242Z,0.60
2023-03-05T00:42:45.713Z,0.50
2023-03-05T00:45:12.501Z,0.60
2023-03-05T00:47:39.313Z,0.40
2023-03-05T00:50:06.691Z,0.25
2023-03-05T00:52:33.527Z,0.40
2023-03-05T00:54:59.930Z,0.32
2023-03-05T00:57:26.304Z,0.45
2023-03-05T00:59:52.664Z,0.50
2023-03-05T01:02:19.097Z,0.35
2023-03-05T01:04:47.298Z,0.50
2023-03-05T01:07:13.772Z,0.45
2023-03-05T01:09:40.219Z,0.30
2023-03-05T01:12:06.809Z,0.40
2023-03-05T01:14:34.678Z,0.40
2023-03-05T01:17:01.400Z,0.40
2023-03-05T01:19:27.802Z,0.30
2023-03-05T01:21:55.104Z,0.43
2023-03-05T01:24:21.969Z,0.60
2023-03-05T01:26:49.354Z,0.50
2023-03-05T01:29:15.796Z,0.73
2023-03-05T01:31:42.289Z,0.43
2023-03-05T01:34:08.761Z,0.45
2023-03-05T01:36:35.148Z,0.55
2023-03-05T01:39:02.599Z,0.50
2023-03-05T01:41:29.047Z,0.60
2023-03-05T01:43:55.428Z,0.50
2023-03-05T01:46:35.450Z,0.40
2023-03-05T01:49:04.311Z,0.40
2023-03-05T01:51:33.165Z,0.45
2023-03-05T01:54:00.766Z,0.43
2023-03-05T01:56:28.201Z,0.50
2023-03-05T01:58:55.517Z,0.60
2023-03-05T02:01:22.067Z,0.60
2023-03-05T02:03:48.621Z,0.50
2023-03-05T02:06:15.198Z,0.68
2023-03-05T02:08:41.715Z,0.50
2023-03-05T02:11:08.781Z,0.70
2023-03-05T02:13:38.891Z,0.55
2023-03-05T02:16:05.791Z,0.63
2023-03-05T02:18:32.486Z,0.80
2023-03-05T02:21:22.053Z,0.70
2023-03-05T02:23:48.382Z,0.90
2023-03-05T02:26:14.947Z,0.63
2023-03-05T02:29:01.098Z,0.80
2023-03-05T02:31:27.669Z,0.63
2023-03-05T02:33:56.075Z,0.65
2023-03-05T02:36:23.402Z,0.60
2023-03-05T02:38:49.785Z,0.52
2023-03-05T02:41:16.477Z,0.40
2023-03-05T02:43:43.124Z,0.73
2023-03-05T02:46:09.957Z,0.77
2023-03-05T02:48:36.459Z,1.00
2023-03-05T02:51:04.472Z,0.85
2023-03-05T02:53:30.880Z,0.50
2023-03-05T02:55:57.554Z,0.50
2023-03-05T02:58:24.156Z,0.40
2023-03-05T03:00:50.665Z,0.60
2023-03-05T03:03:17.191Z,0.40
2023-03-05T03:05:43.671Z,0.52
2023-03-05T03:08:10.548Z,0.68
2023-03-05T03:10:37.000Z,0.40
2023-03-05T03:13:03.490Z,0.75
2023-03-05T03:15:30.009Z,0.45
2023-03-05T03:17:56.424Z,0.93
2023-03-05T03:20:22.931Z,0.50
2023-03-05T03:22:49.412Z,0.40
2023-03-05T03:25:20.038Z,0.40
2023-03-05T03:27:46.562Z,0.32
2023-03-05T03:30:13.509Z,0.43
2023-03-05T03:32:39.933Z,0.75
2023-03-05T03:35:07.482Z,0.43
2023-03-05T03:37:33.806Z,0.40
2023-03-05T03:40:00.285Z,0.32
2023-03-05T03:42:26.742Z,0.38
2023-03-05T03:44:53.252Z,0.65
2023-03-05T03:47:19.703Z,0.28
2023-03-05T03:49:46.143Z,0.73
2023-03-05T03:52:12.547Z,1.10
2023-03-05T03:54:38.975Z,0.47
2023-03-05T03:57:05.450Z,0.40
2023-03-05T03:59:31.839Z,0.65
2023-03-05T04:01:58.286Z,0.60
2023-03-05T04:04:26.481Z,0.50
2023-03-05T04:06:53.012Z,0.60
2023-03-05T04:09:19.426Z,0.50
2023-03-05T04:11:45.859Z,0.30
2023-03-05T04:14:12.278Z,0.32
2023-03-05T04:16:38.673Z,0.50
2023-03-05T04:19:05.120Z,0.40
2023-03-05T04:21:31.696Z,0.40
2023-03-05T04:23:58.449Z,0.40
2023-03-05T04:26:24.954Z,0.40
2023-03-05T04:28:51.384Z,0.30
2023-03-05T04:31:17.840Z,0.40
2023-03-05T04:33:44.304Z,0.60
2023-03-05T04:36:10.699Z,0.60
2023-03-05T04:38:37.105Z,0.68
2023-03-05T04:41:03.609Z,0.40
2023-03-05T04:43:30.025Z,0.80
2023-03-05T04:45:56.445Z,0.60
2023-03-05T04:48:22.847Z,0.50
2023-03-05T04:50:49.277Z,0.28
2023-03-05T04:53:15.632Z,0.50
2023-03-05T04:55:42.823Z,0.70
2023-03-05T04:58:09.273Z,0.50
2023-03-05T05:00:35.725Z,0.55
2023-03-05T05:03:02.239Z,0.30
2023-03-05T05:05:28.963Z,0.57
2023-03-05T05:07:56.292Z,0.35
2023-03-05T05:10:23.189Z,0.32
2023-03-05T05:12:49.589Z,0.50
2023-03-05T05:15:15.906Z,0.93
2023-03-05T05:17:42.468Z,0.50
2023-03-05T05:20:11.511Z,0.57
2023-03-05T05:22:38.112Z,0.57
2023-03-05T05:25:05.298Z,0.40
2023-03-05T05:27:31.679Z,0.50
2023-03-05T05:29:58.006Z,0.40
2023-03-05T05:32:24.956Z,0.60
2023-03-05T05:34:55.309Z,0.52
2023-03-05T05:37:21.846Z,0.73
2023-03-05T05:39:50.376Z,0.68
2023-03-05T05:42:21.466Z,0.60
2023-03-05T05:44:47.895Z,0.65
2023-03-05T05:47:17.539Z,1.20
2023-03-05T05:52:10.251Z,0.55
2023-03-05T05:54:36.679Z,0.57
2023-03-05T05:57:03.245Z,0.60
2023-03-05T05:59:29.758Z,0.40
2023-03-05T06:01:56.272Z,0.60
2023-03-05T06:04:22.893Z,0.47
2023-03-05T06:06:49.347Z,0.50
2023-03-05T06:09:16.018Z,0.43
2023-03-05T06:11:42.450Z,0.40
2023-03-05T06:14:09.829Z,0.75
2023-03-05T06:16:36.400Z,0.60
2023-03-05T06:19:05.720Z,0.70
2023-03-05T06:21:32.747Z,0.30
2023-03-05T06:23:59.285Z,0.70
2023-03-05T06:26:26.012Z,0.63
2023-03-05T06:28:52.543Z,0.60
2023-03-05T06:31:21.943Z,0.43
2023-03-05T06:33:48.712Z,0.75
2023-03-05T06:36:16.272Z,0.65
2023-03-05T06:38:43.079Z,0.60
2023-03-05T06:41:11.556Z,0.52
2023-03-05T06:43:39.296Z,0.70
2023-03-05T06:46:07.029Z,0.82
2023-03-05T06:48:33.624Z,0.82
2023-03-05T06:51:00.022Z,0.63
2023-03-05T06:53:29.324Z,0.80
2023-03-05T06:55:55.815Z,0.45
2023-03-05T06:58:22.704Z,0.40
2023-03-05T07:00:49.139Z,0.80
2023-03-05T07:03:15.531Z,0.60
2023-03-05T07:05:42.183Z,0.57
2023-03-05T07:08:08.929Z,0.85
2023-03-05T07:10:42.517Z,0.70
2023-03-05T07:13:09.453Z,0.85
2023-03-05T07:15:38.270Z,0.52
2023-03-05T07:18:04.907Z,0.75
2023-03-05T07:20:31.732Z,0.70
2023-03-05T07:22:58.435Z,0.40
2023-03-05T07:25:25.398Z,0.70
2023-03-05T07:27:51.911Z,0.50
2023-03-05T07:30:18.547Z,0.63
2023-03-05T07:32:45.012Z,0.40
2023-03-05T07:35:11.471Z,0.50
2023-03-05T07:37:38.383Z,0.52
2023-03-05T07:40:04.967Z,0.45
2023-03-05T07:42:31.543Z,0.43
2023-03-05T07:44:58.858Z,0.30
2023-03-05T07:47:25.404Z,0.28
2023-03-05T07:49:51.910Z,0.40
2023-03-05T07:52:18.308Z,0.50
2023-03-05T07:54:44.868Z,0.57
2023-03-05T07:57:13.230Z,0.57
2023-03-05T07:59:39.705Z,0.38
2023-03-05T08:02:06.293Z,0.45
2023-03-05T08:04:33.026Z,0.80
2023-03-05T08:06:59.901Z,0.43
2023-03-05T08:09:26.368Z,0.95
2023-03-05T08:11:52.810Z,0.70
2023-03-05T08:14:19.301Z,0.50
2023-03-05T08:16:48.392Z,0.38
2023-03-05T08:19:15.011Z,0.50
2023-03-05T08:21:41.393Z,0.60
2023-03-05T08:24:08.663Z,0.20
2023-03-05T08:26:36.027Z,0.52
2023-03-05T08:29:03.398Z,0.45
2023-03-05T08:31:32.522Z,0.47
2023-03-05T08:33:59.984Z,1.20
2023-03-05T08:36:26.608Z,0.40
2023-03-05T08:38:53.040Z,0.50
2023-03-05T08:41:19.743Z,0.60
2023-03-05T08:43:46.142Z,0.40
2023-03-05T08:46:13.523Z,0.70
2023-03-05T08:48:40.276Z,0.57
2023-03-05T08:51:13.038Z,0.40
2023-03-05T08:53:39.780Z,0.60
2023-03-05T08:56:06.626Z,0.57
2023-03-05T08:58:33.205Z,0.47
2023-03-05T09:01:00.128Z,0.60
2023-03-05T09:03:26.938Z,0.82
2023-03-05T09:05:53.366Z,0.63
2023-03-05T09:08:19.793Z,0.75
2023-03-05T09:10:46.692Z,0.80
2023-03-05T09:13:13.394Z,0.63
2023-03-05T09:15:39.854Z,0.70
2023-03-05T09:18:06.798Z,0.70
2023-03-05T09:20:33.948Z,0.82
2023-03-05T09:23:00.394Z,1.00
2023-03-05T09:25:26.947Z,0.65
2023-03-05T09:27:53.318Z,0.60
2023-03-05T09:30:19.848Z,0.70
2023-03-05T09:32:46.261Z,0.63
2023-03-05T09:35:12.748Z,0.60
2023-03-05T09:37:39.669Z,0.70
2023-03-05T09:40:06.433Z,0.80
2023-03-05T09:42:44.911Z,0.70
2023-03-05T09:45:26.825Z,0.82
2023-03-05T09:47:56.864Z,0.70
2023-03-05T09:50:40.074Z,0.60
2023-03-05T09:53:12.366Z,0.80
2023-03-05T09:56:11.713Z,0.47
2023-03-05T10:01:06.175Z,0.70
2023-03-05T10:03:38.522Z,0.45
2023-03-05T10:06:15.327Z,0.70
2023-03-05T10:08:58.486Z,0.85
2023-03-05T10:11:30.629Z,0.68
2023-03-05T10:13:57.140Z,0.30
2023-03-05T10:16:29.386Z,0.40
2023-03-05T10:19:14.381Z,0.40
2023-03-05T10:21:47.727Z,0.40
2023-03-05T10:24:22.238Z,0.32
2023-03-05T10:26:51.714Z,0.30
2023-03-05T10:32:05.612Z,0.38
2023-03-05T10:34:50.800Z,0.77
2023-03-05T10:37:17.133Z,0.70
2023-03-05T10:39:55.665Z,0.45
2023-03-05T10:42:36.078Z,1.13
2023-03-05T10:45:13.972Z,0.50
2023-03-05T10:47:49.677Z,0.60
2023-03-05T10:50:24.078Z,0.50
2023-03-05T10:53:10.915Z,0.50
2023-03-05T10:55:37.421Z,0.50
2023-03-05T10:58:10.407Z,0.38
2023-03-05T11:00:36.901Z,0.38
2023-03-05T11:03:04.992Z,0.52
2023-03-05T11:05:31.351Z,0.50
2023-03-05T11:07:57.774Z,0.50
2023-03-05T11:10:24.311Z,0.57
2023-03-05T11:12:50.733Z,0.50
2023-03-05T11:15:17.162Z,0.50
2023-03-05T11:17:48.974Z,0.20
2023-03-05T11:20:27.843Z,0.50
2023-03-05T11:23:27.212Z,0.52
2023-03-05T11:28:32.355Z,0.40
2023-03-05T11:31:01.625Z,0.40
2023-03-05T11:33:29.124Z,0.50
2023-03-05T11:36:15.831Z,0.30
2023-03-05T11:38:52.984Z,0.60
2023-03-05T11:41:22.073Z,0.50
2023-03-05T11:43:50.933Z,0.30
2023-03-05T11:46:18.879Z,0.43
2023-03-05T11:48:46.536Z,0.47
2023-03-05T11:51:18.767Z,0.50
2023-03-05T11:53:46.412Z,0.40
2023-03-05T11:56:21.449Z,0.40
2023-03-05T11:59:03.232Z,0.30
2023-03-05T12:01:32.282Z,0.50
2023-03-05T12:04:00.123Z,0.57
2023-03-05T12:06:45.745Z,0.22
2023-03-05T12:09:26.412Z,0.35
2023-03-05T12:11:56.408Z,0.40
2023-03-05T12:14:30.038Z,0.40
2023-03-05T12:17:18.907Z,0.60
2023-03-05T12:20:01.520Z,0.40
2023-03-05T12:22:34.021Z,0.40
2023-03-05T12:25:19.945Z,0.50
2023-03-05T12:27:46.451Z,0.57
2023-03-05T12:30:31.342Z,0.60
2023-03-05T12:32:57.778Z,0.95
2023-03-05T12:35:36.884Z,0.60
2023-03-05T12:38:24.364Z,0.43
2023-03-05T12:40:50.886Z,0.40
2023-03-05T12:43:31.092Z,0.47
2023-03-05T12:46:16.499Z,0.28
2023-03-05T12:48:44.080Z,0.20
2023-03-05T12:51:12.538Z,0.47
2023-03-05T12:53:38.979Z,0.40
2023-03-05T12:56:26.540Z,0.30
2023-03-05T12:58:53.618Z,0.40
2023-03-05T13:01:29.489Z,0.60
2023-03-05T13:03:58.122Z,0.50
2023-03-05T13:06:24.512Z,0.50
2023-03-05T13:08:58.272Z,0.50
2023-03-05T13:11:24.978Z,0.40
2023-03-05T13:13:51.559Z,1.05
2023-03-05T13:16:26.333Z,0.40
2023-03-05T13:18:53.743Z,0.65
2023-03-05T13:21:21.284Z,0.50
2023-03-05T13:23:49.412Z,0.50
2023-03-05T13:26:18.865Z,0.40
2023-03-05T13:29:02.405Z,0.40
2023-03-05T13:31:28.876Z,0.40
2023-03-05T13:34:05.654Z,0.47
2023-03-05T13:36:33.117Z,0.47
2023-03-05T13:39:00.578Z,0.70
2023-03-05T13:41:27.889Z,0.50
2023-03-05T13:44:01.143Z,0.50
2023-03-05T13:46:32.968Z,0.40
2023-03-05T13:49:17.240Z,0.45
2023-03-05T13:51:45.681Z,0.35
2023-03-05T13:54:14.662Z,0.70
2023-03-05T13:56:50.208Z,0.50
2023-03-05T13:59:21.452Z,0.57
2023-03-05T14:01:48.421Z,0.60
2023-03-05T14:04:15.441Z,0.50
2023-03-05T14:06:46.434Z,0.57
2023-03-05T14:09:20.495Z,0.40
2023-03-05T14:11:53.856Z,0.50
2023-03-05T14:14:22.074Z,0.40
2023-03-05T14:16:48.611Z,0.57
2023-03-05T14:19:35.948Z,0.40
2023-03-05T14:22:02.886Z,0.65
2023-03-05T14:24:31.264Z,0.73
2023-03-05T14:26:57.693Z,0.50
2023-03-05T14:29:25.364Z,0.30
2023-03-05T14:32:04.364Z,0.40
2023-03-05T14:34:38.355Z,0.35
2023-03-05T14:37:16.842Z,0.57
2023-03-05T14:39:56.524Z,0.67
2023-03-05T14:42:27.393Z,0.60
2023-03-05T14:44:55.691Z,0.30
2023-03-05T14:47:25.810Z,0.82
2023-03-05T14:49:52.437Z,0.47
2023-03-05T14:52:20.579Z,0.73
2023-03-05T14:54:47.534Z,0.50
2023-03-05T14:57:18.669Z,0.32
2023-03-05T14:59:45.005Z,0.50
2023-03-05T15:02:22.533Z,0.60
2023-03-05T15:04:49.192Z,0.60
2023-03-05T15:07:18.356Z,0.60
2023-03-05T15:09:44.950Z,0.60
2023-03-05T15:12:14.493Z,0.30
2023-03-05T15:14:43.326Z,0.50
2023-03-05T15:17:17.691Z,0.30
2023-03-05T15:19:44.396Z,0.60
2023-03-05T15:22:12.029Z,0.50
2023-03-05T15:24:39.650Z,0.50
2023-03-05T15:27:06.479Z,0.55
2023-03-05T15:29:33.458Z,0.43
2023-03-05T15:32:01.354Z,0.98
2023-03-05T15:34:28.748Z,1.15
2023-03-05T15:36:55.973Z,0.50
2023-03-05T15:39:24.837Z,0.65
2023-03-05T15:41:51.475Z,0.50
2023-03-05T15:44:18.234Z,1.13
2023-03-05T15:46:44.797Z,0.60
2023-03-05T15:49:11.392Z,0.68
2023-03-05T15:51:37.868Z,0.52
2023-03-05T15:54:04.520Z,0.70
2023-03-05T15:56:30.933Z,0.60
2023-03-05T15:58:57.453Z,0.50
2023-03-05T16:01:23.949Z,0.20
2023-03-05T16:03:50.744Z,0.35
2023-03-05T16:06:20.579Z,0.70
2023-03-05T16:08:47.388Z,0.40
2023-03-05T16:11:13.887Z,0.40
2023-03-05T16:13:41.337Z,0.47
2023-03-05T16:16:08.262Z,0.43
2023-03-05T16:18:36.481Z,0.38
2023-03-05T16:21:02.936Z,0.52
2023-03-05T16:23:29.862Z,0.30
2023-03-05T16:25:58.099Z,0.20
2023-03-05T16:28:25.279Z,0.40
2023-03-05T16:30:55.503Z,0.50
2023-03-05T16:33:21.954Z,0.32
2023-03-05T16:35:48.782Z,0.60
2023-03-05T16:38:15.923Z,0.50
2023-03-05T16:41:06.856Z,0.30
2023-03-05T16:43:28.807Z,0.70
2023-03-05T16:45:55.239Z,0.20
2023-03-05T16:48:21.635Z,0.30
2023-03-05T16:50:48.032Z,0.40
2023-03-05T16:53:14.570Z,0.28
2023-03-05T16:55:40.982Z,0.50
2023-03-05T16:58:07.408Z,0.40
2023-03-05T17:00:33.912Z,0.45
2023-03-05T17:03:00.421Z,0.50
2023-03-05T17:05:28.184Z,0.90
2023-03-05T17:07:55.679Z,0.40
2023-03-05T17:10:22.260Z,0.55
2023-03-05T17:12:49.438Z,0.40
2023-03-05T17:15:15.902Z,0.65
2023-03-05T17:17:42.405Z,0.40
2023-03-05T17:20:09.325Z,0.30
2023-03-05T17:22:35.745Z,0.82
2023-03-05T17:25:02.210Z,0.60
2023-03-05T17:27:29.582Z,0.45
2023-03-05T17:29:55.992Z,0.40
2023-03-05T17:32:22.514Z,0.20
2023-03-05T17:34:52.496Z,0.40
2023-03-05T17:37:19.241Z,0.30
2023-03-05T17:39:45.682Z,0.50
2023-03-05T17:42:12.207Z,0.30
2023-03-05T17:44:38.699Z,0.40
2023-03-05T17:47:05.237Z,0.40
2023-03-05T17:49:31.699Z,0.50
2023-03-05T17:51:58.040Z,0.40
2023-03-05T17:54:24.482Z,0.47
2023-03-05T17:56:54.137Z,0.43
2023-03-05T17:59:20.629Z,0.93
2023-03-05T18:01:47.124Z,0.40
2023-03-05T18:04:15.262Z,0.43
2023-03-05T18:06:41.971Z,0.70
2023-03-05T18:09:08.477Z,0.70
2023-03-05T18:11:34.912Z,0.40
2023-03-05T18:14:01.526Z,0.50
2023-03-05T18:16:28.020Z,0.55
2023-03-05T18:18:54.482Z,0.50
2023-03-05T18:21:22.868Z,0.60
2023-03-05T18:23:50.023Z,0.57
2023-03-05T18:26:16.582Z,0.52
2023-03-05T18:28:43.495Z,0.60
2023-03-05T18:31:09.936Z,0.80
2023-03-05T18:33:38.688Z,0.68
2023-03-05T18:36:05.260Z,0.70
2023-03-05T18:38:32.141Z,0.52
2023-03-05T18:41:01.699Z,0.70
2023-03-05T18:45:55.128Z,0.57
2023-03-05T18:48:22.116Z,0.60
2023-03-05T18:50:52.127Z,0.60
2023-03-05T18:53:19.140Z,0.55
2023-03-05T18:55:45.625Z,0.60
2023-03-05T18:58:15.458Z,0.57
2023-03-05T19:00:42.374Z,0.70
2023-03-05T19:03:09.057Z,0.90
2023-03-05T19:05:35.498Z,0.40
2023-03-05T19:08:01.936Z,0.68
2023-03-05T19:10:28.569Z,0.60
2023-03-05T19:13:05.723Z,0.38
2023-03-05T19:15:32.560Z,0.60
2023-03-05T19:17:59.641Z,0.70
2023-03-05T19:20:26.286Z,1.00
2023-03-05T19:22:55.715Z,1.10
2023-03-05T19:25:22.323Z,0.80
2023-03-05T19:27:48.736Z,0.90
2023-03-05T19:30:16.577Z,0.43
2023-03-05T19:32:43.161Z,0.73
2023-03-05T19:35:13.859Z,1.17
2023-03-05T19:37:40.665Z,0.70
2023-03-05T19:40:07.538Z,0.70
2023-03-05T19:42:35.846Z,0.77
2023-03-05T19:45:02.951Z,0.50
2023-03-05T19:47:29.427Z,0.75
2023-03-05T19:49:55.954Z,0.75
2023-03-05T19:52:22.564Z,0.80
2023-03-05T19:54:49.006Z,0.80
2023-03-05T19:57:15.412Z,0.85
2023-03-05T19:59:44.075Z,0.50
2023-03-05T20:02:11.948Z,0.80
2023-03-05T20:04:38.428Z,0.90
2023-03-05T20:07:07.130Z,1.27
2023-03-05T20:09:33.570Z,0.70
2023-03-05T20:12:02.766Z,1.02
2023-03-05T20:14:29.320Z,0.68
2023-03-05T20:16:55.886Z,0.85
2023-03-05T20:19:22.355Z,0.90
2023-03-05T20:21:48.992Z,0.80
2023-03-05T20:24:16.745Z,0.70
2023-03-05T20:26:43.976Z,0.98
2023-03-05T20:29:11.550Z,0.90
2023-03-05T20:31:38.531Z,0.90
2023-03-05T20:34:06.789Z,0.90
2023-03-05T20:36:34.872Z,0.80
2023-03-05T20:39:03.165Z,0.70
2023-03-05T20:41:30.247Z,1.02
2023-03-05T20:43:57.162Z,0.85
2023-03-05T20:46:24.976Z,0.60
2023-03-05T20:48:53.122Z,0.90
2023-03-05T20:51:26.956Z,0.90
2023-03-05T20:53:57.881Z,0.70
2023-03-05T20:56:26.224Z,0.77
2023-03-05T20:58:52.694Z,1.00
2023-03-05T21:01:19.108Z,0.95
2023-03-05T21:03:45.600Z,0.93
2023-03-05T21:06:12.171Z,1.05
2023-03-05T21:08:38.582Z,0.70
2023-03-05T21:11:06.536Z,0.82
2023-03-05T21:13:33.472Z,0.98
2023-03-05T21:15:59.929Z,0.70
2023-03-05T21:18:28.417Z,0.70
2023-03-05T21:20:55.024Z,0.98
2023-03-05T21:23:21.435Z,0.80
2023-03-05T21:25:47.943Z,0.80
2023-03-05T21:28:18.789Z,0.80
2023-03-05T21:30:46.958Z,1.70
2023-03-05T21:33:15.275Z,1.63
2023-03-05T21:35:41.865Z,1.30
2023-03-05T21:38:08.799Z,1.40
2023-03-05T21:40:36.033Z,1.65
2023-03-05T21:43:03.802Z,1.63
2023-03-05T21:45:30.858Z,1.98
2023-03-05T21:47:58.757Z,2.20
2023-03-05T21:50:25.707Z,2.35
2023-03-05T21:52:52.758Z,2.55
2023-03-05T21:55:22.516Z,1.95
2023-03-05T21:57:49.030Z,1.70
2023-03-05T22:00:18.125Z,2.13
2023-03-05T22:02:45.888Z,2.38
2023-03-05T22:05:13.246Z,1.92
2023-03-05T22:07:40.058Z,2.80
2023-03-05T22:10:06.851Z,2.72
2023-03-05T22:13:03.324Z,3.63
2023-03-05T22:15:29.733Z,2.80
2023-03-05T22:17:56.194Z,2.47
2023-03-05T22:20:22.647Z,2.55
2023-03-05T22:22:49.160Z,1.95
2023-03-05T22:25:15.926Z,2.03
2023-03-05T22:27:42.978Z,2.17
2023-03-05T22:30:10.503Z,2.05
2023-03-05T22:32:37.514Z,2.00
2023-03-05T22:35:05.515Z,2.10
2023-03-05T22:37:32.125Z,1.92
2023-03-05T22:39:59.049Z,2.10
2023-03-05T22:42:25.817Z,2.28
2023-03-05T22:44:56.395Z,1.80
2023-03-05T22:47:22.974Z,1.85
2023-03-05T22:49:49.463Z,1.35
2023-03-05T22:52:15.860Z,1.67
2023-03-05T22:54:42.246Z,1.42
2023-03-05T22:57:08.749Z,1.50
2023-03-05T22:59:35.090Z,1.35
2023-03-05T23:02:01.496Z,1.40
2023-03-05T23:04:49.076Z,1.65
2023-03-05T23:07:17.122Z,1.52
2023-03-05T23:09:43.988Z,1.40
2023-03-05T23:12:11.274Z,1.27
2023-03-05T23:14:37.697Z,1.30
2023-03-05T23:17:04.540Z,1.10
2023-03-05T23:19:31.038Z,1.20
2023-03-05T23:21:57.483Z,1.05
2023-03-05T23:24:23.824Z,1.00
2023-03-05T23:26:50.241Z,1.08
2023-03-05T23:29:16.594Z,1.30
2023-03-05T23:31:42.994Z,1.20
2023-03-05T23:34:09.424Z,1.20
2023-03-05T23:36:35.831Z,0.90
2023-03-05T23:39:02.198Z,2.63
2023-03-05T23:41:28.960Z,3.97
2023-03-05T23:43:55.327Z,3.63
2023-03-05T23:46:21.672Z,2.40
2023-03-05T23:48:48.077Z,3.08
2023-03-05T23:51:14.496Z,2.40
2023-03-05T23:53:40.839Z,2.60
2023-03-05T23:56:11.590Z,1.75
2023-03-05T23:58:38.422Z,1.50
